Aérodrome :
LOGIN :

S'inscrire | Disclaimer

   EN    FR    IT 

 










Légende :    VFR   VFR Marginal   IFR   IFR Intensif   IFR Très Intensif
Visi : 
Plafond : 
>= 8 km
>= 3000ft
5 à 8 km
1000 à 3000 ft
1500m à 5 km
500 à 1000 ft
800 à 1500m
200 à 500 ft
< 800m
< 200 ft
Symboles :   Orages  Brouillard  Fortes neiges  Fortes précipitations  Vent > 20 kt
SIGMETs :   Divers  Orages  Givrage  Turbulence  Onde Orograph.  Cendres Volcan.







- Altitude de l'aérodrome : 56 ft
- Code IATA : BZR
- Voir les cartes d'approche


LFMU - Beziers / Vias

DERNIER METAR :
  • 231800Z AUTO 07008KT 9999 FEW013 BKN058 14/12 Q1019 NOSIG

METARs EXPIRÉS :
  • 231730Z AUTO 07007KT CAVOK 14/12 Q1019 NOSIG
  • 231700Z AUTO 06008KT 9999 FEW012 OVC058 15/12 Q1019 TEMPO 13010KT
  • 231630Z AUTO 06007KT 9999 FEW013 SCT040 BKN060 15/12 Q1018 TEMPO 13010KT
  • 231600Z AUTO 09008KT 9999 BKN039 BKN047 OVC062 15/12 Q1018 NOSIG
  • 231530Z AUTO 10008KT 9999 FEW030 SCT039 OVC060 16/12 Q1018 NOSIG

TAF TAF LFMU
Valide du 23 à 15h jusqu'au 24 à 15h UTC


231400Z 2315/2415 13010KT 9999 FEW035 SCT045 OVC055
BECMG 2318/2320 04010KT
TEMPO 2322/2403 BKN005
TEMPO 2404/2415 DZ OVC010
ATIS : +33 4 67 90 88 88
Pas de NOTAMs connus pour ce terrain.



MET'MAP, la Météo Aéronautique d'un coup d'oeil ! - Copyright ORBIFLY Décembre 2007 - Disclaimer

ORBIFLY MET'MAP TEAM :

Programmation & Développement : Alexandra Zaïnal
Conception & Développement : Baudouin d'Aumeries
Co-Programmation & Développement : Marc-Olivier Méhu
Soutien technique & logistique : Manuel Goepfert

Contact : metmap@orbifly.com




SOURCES & CREDITS :

   NOAA